»·PEaware :: UAL711 KSLC-KASE

UAL711 :: KSLC-KASE

FLIGHT INFORMATION

Flight Status: Arrived
Operator:
United Airlines
More flights by this operator :: More flights under this callsign
Pilot: Sergei F. (8485)
Aircraft: BOEING 737-600
(B736)
More flights by this aircraft type
Origin: KSLC Salt Lake City Intl
United States
Destination: KASE Aspen-Pitkin Co/Sardy
United States
More flights between these airports :: More routes between these airports
Route: RUGGD3 EKR TRUEL DBL
File this flight plan on PilotEdge
Remarks:
Altitude:
(Current/Filed)
37,000ft
Speed:
(Current/Filed)
460kts
Departed: 25-Nov-23 07:19 PM
Arrived: 25-Nov-23 08:15 PM
Distance/Time
Traveled:
253nm/0:56
Distance/Time
To Go:
Arrived

Flight Plot

Page will automatically refresh every two minutes.

Flight plan parsing failed; only flown route is shown


Map Options




Map Legend


Flown Route
Filed Route
Departure Airport
Arrival Airport
Navaid (VOR, NDB)
Fix

Horizontal Profiles

Position Reports

Time Latitude Longitude Heading Altitude Ground
Speed
25-Nov-23 18:35 40.788272 -111.982000 102 4232ft 0kts
25-Nov-23 18:36 40.788272 -111.982000 102 4232ft 0kts
25-Nov-23 18:37 40.788272 -111.982000 102 4232ft 0kts
25-Nov-23 18:38 40.788272 -111.982000 102 4232ft 0kts
25-Nov-23 18:39 40.788272 -111.982000 102 4232ft 0kts
25-Nov-23 18:40 40.788272 -111.982000 102 4232ft 0kts
25-Nov-23 18:41 40.788272 -111.982000 102 4232ft 0kts
25-Nov-23 18:42 40.788272 -111.982000 102 4232ft 0kts
25-Nov-23 18:43 40.788272 -111.982000 102 4232ft 0kts
25-Nov-23 18:44 40.788272 -111.982000 102 4232ft 0kts
25-Nov-23 18:45 40.788272 -111.982000 102 4232ft 0kts
25-Nov-23 18:46 40.788272 -111.982000 102 4232ft 0kts
25-Nov-23 18:47 40.788272 -111.982000 102 4232ft 0kts
25-Nov-23 18:48 40.788272 -111.982000 102 4232ft 0kts
25-Nov-23 18:49 40.788272 -111.982000 102 4232ft 0kts
25-Nov-23 18:50 40.788279 -111.982046 101 4230ft 0kts
25-Nov-23 18:51 40.788345 -111.982600 80 4230ft 1kts
25-Nov-23 18:52 40.788038 -111.982960 5 4232ft 1kts
25-Nov-23 18:53 40.788389 -111.982911 6 4231ft 1kts
25-Nov-23 18:54 40.788860 -111.982837 7 4231ft 0kts
25-Nov-23 18:55 40.788861 -111.982837 7 4231ft 0kts
25-Nov-23 18:56 40.788861 -111.982837 7 4231ft 0kts
25-Nov-23 18:57 40.788861 -111.982837 7 4231ft 0kts
25-Nov-23 18:58 40.788861 -111.982837 7 4231ft 0kts
25-Nov-23 18:59 40.788861 -111.982837 7 4231ft 0kts
25-Nov-23 19:00 40.789842 -111.982431 57 4231ft 5kts
25-Nov-23 19:01 40.789980 -111.980549 89 4233ft 5kts
25-Nov-23 19:02 40.790219 -111.978785 84 4235ft 4kts
25-Nov-23 19:03 40.790281 -111.977821 85 4237ft 0kts
25-Nov-23 19:04 40.790281 -111.977821 85 4237ft 0kts
25-Nov-23 19:05 40.790281 -111.977821 85 4237ft 0kts
25-Nov-23 19:06 40.790281 -111.977821 85 4237ft 0kts
25-Nov-23 19:07 40.790281 -111.977821 85 4237ft 0kts
25-Nov-23 19:08 40.790281 -111.977821 85 4237ft 0kts
25-Nov-23 19:10 40.790281 -111.977821 85 4237ft 0kts
25-Nov-23 19:11 40.790281 -111.977821 85 4237ft 0kts
25-Nov-23 19:12 40.790281 -111.977821 85 4237ft 0kts
25-Nov-23 19:13 40.791345 -111.977247 354 4235ft 14kts
25-Nov-23 19:14 40.796722 -111.977860 354 4231ft 20kts
25-Nov-23 19:15 40.802049 -111.978478 354 4240ft 18kts
25-Nov-23 19:16 40.806465 -111.979008 356 4236ft 7kts
25-Nov-23 19:17 40.807406 -111.977472 106 4231ft 6kts
25-Nov-23 19:18 40.801493 -111.976257 175 4240ft 102kts
25-Nov-23 19:19 40.756575 -111.976586 208 6690ft 171kts
25-Nov-23 19:20 40.756784 -112.027939 320 7515ft 164kts
25-Nov-23 19:21 40.785326 -112.077838 306 9056ft 200kts
25-Nov-23 19:22 40.831096 -112.122382 17 11172ft 248kts
25-Nov-23 19:23 40.903449 -112.084181 20 13380ft 311kts
25-Nov-23 19:24 40.990581 -112.043259 19 15956ft 347kts
25-Nov-23 19:25 41.066508 -111.967920 61 18946ft 361kts
25-Nov-23 19:26 41.108946 -111.844178 62 21717ft 377kts
25-Nov-23 19:27 41.084509 -111.710857 136 24382ft 424kts
25-Nov-23 19:28 40.991135 -111.613072 139 26729ft 438kts
25-Nov-23 19:29 40.894517 -111.511069 138 28884ft 443kts
25-Nov-23 19:30 40.803089 -111.404856 122 31002ft 434kts
25-Nov-23 19:31 40.760708 -111.258341 102 33020ft 428kts
25-Nov-23 19:32 40.726919 -111.105954 103 34646ft 439kts
25-Nov-23 19:33 40.691270 -110.950205 103 36047ft 445kts
25-Nov-23 19:34 40.654943 -110.792688 104 37113ft 456kts
25-Nov-23 19:35 40.616900 -110.628751 104 37352ft 483kts
25-Nov-23 19:36 40.576430 -110.455829 104 37340ft 504kts
25-Nov-23 19:37 40.535032 -110.279577 103 37336ft 501kts
25-Nov-23 19:38 40.501558 -110.102025 101 37357ft 498kts
25-Nov-23 19:39 40.468686 -109.925778 101 37365ft 498kts
25-Nov-23 19:40 40.434938 -109.749771 101 37343ft 499kts
25-Nov-23 19:41 40.400780 -109.573053 102 37313ft 500kts
25-Nov-23 19:42 40.366225 -109.395802 102 37322ft 501kts
25-Nov-23 19:43 40.331392 -109.218707 102 37377ft 503kts
25-Nov-23 19:44 40.296165 -109.041176 102 37423ft 503kts
25-Nov-23 19:45 40.260682 -108.863916 103 37420ft 503kts
25-Nov-23 19:46 40.224910 -108.686761 103 37438ft 503kts
25-Nov-23 19:47 40.188995 -108.510423 103 37453ft 503kts
25-Nov-23 19:48 40.152668 -108.333542 103 36822ft 510kts
25-Nov-23 19:49 40.115795 -108.155616 103 33581ft 504kts
25-Nov-23 19:50 40.085747 -108.011852 103 30999ft 488kts
25-Nov-23 19:52 39.936239 -107.706694 126 25010ft 444kts
25-Nov-23 19:53 39.860724 -107.581905 125 24170ft 429kts
25-Nov-23 19:54 39.787366 -107.461116 125 21133ft 423kts
25-Nov-23 19:55 39.715150 -107.342753 125 18142ft 412kts
25-Nov-23 19:56 39.647845 -107.232825 125 17100ft 359kts
25-Nov-23 19:57 39.590926 -107.140203 125 17045ft 300kts
25-Nov-23 19:58 39.542479 -107.061504 124 16318ft 265kts
25-Nov-23 19:59 39.495160 -106.988454 126 15237ft 261kts
25-Nov-23 20:00 39.434826 -106.951561 190 14204ft 257kts
25-Nov-23 20:01 39.395474 -107.007787 291 14070ft 236kts
25-Nov-23 20:02 39.447815 -107.051874 337 14118ft 233kts
25-Nov-23 20:03 39.506009 -107.083509 337 14101ft 223kts
25-Nov-23 20:04 39.563038 -107.114653 338 14106ft 224kts
25-Nov-23 20:05 39.615909 -107.098022 71 14095ft 240kts
25-Nov-23 20:06 39.576109 -107.035740 160 14096ft 260kts
25-Nov-23 20:07 39.512442 -107.007211 159 14112ft 227kts
25-Nov-23 20:08 39.455507 -106.979956 159 13627ft 206kts
25-Nov-23 20:09 39.403014 -106.954781 159 13222ft 201kts
25-Nov-23 20:10 39.351478 -106.930106 159 12695ft 197kts
25-Nov-23 20:11 39.301109 -106.906026 159 11180ft 187kts
25-Nov-23 20:12 39.255145 -106.884092 160 8733ft 170kts
25-Nov-23 20:13 39.221880 -106.868230 159 7761ft 48kts
25-Nov-23 20:14 39.216866 -106.865282 71 7809ft 5kts
25-Nov-23 20:15 39.218122 -106.865233 340 7800ft 6kts
25-Nov-23 20:16 39.218921 -106.864962 72 7794ft 3kts
25-Nov-23 20:17 39.219035 -106.864509 72 7791ft 0kts
25-Nov-23 20:18 39.219035 -106.864509 72 7791ft 0kts
25-Nov-23 20:19 39.219035 -106.864509 72 7791ft 0kts
25-Nov-23 20:20 39.219035 -106.864509 72 7791ft 0kts
25-Nov-23 20:22 39.219035 -106.864509 72 7791ft 0kts
25-Nov-23 20:23 39.219035 -106.864509 72 7791ft 0kts
25-Nov-23 20:24 39.219035 -106.864509 72 7791ft 0kts
25-Nov-23 20:25 39.219035 -106.864509 72 7794ft 0kts
25-Nov-23 20:26 39.219035 -106.864509 72 7794ft 0kts
25-Nov-23 20:27 39.219035 -106.864509 72 7794ft 0kts
25-Nov-23 20:28 39.219035 -106.864509 72 7794ft 0kts
25-Nov-23 20:29 39.219035 -106.864509 72 7794ft 0kts

Navigation Log

Ident Type
Flight plan parsing failed, navigation log unavailable